Time;durP1;ratioP1;P1;durP2;ratioP2;P2;SDS_P1;SDS_P2;PMS_P1;PMS_P2;Temp;Humidity;BMP_temperature;BMP_pressure;BME280_temperature;BME280_humidity;BME280_pressure;Samples;Min_cycle;Max_cycle;Signal;HPM_P1;HPM_P2
2022/01/25 00:15:04;;;;;;;;;9.25;9.25;;;;;-5.82;81.68;102077.84;4877672;29;9626;-69
2022/01/25 00:28:19;;;;;;;;;12.75;12.75;;;;;-5.74;81.32;102066.13;4897676;29;8926;-69
2022/01/25 00:31:09;;;;;;;;;11.00;10.50;;;;;-5.84;81.39;102068.25;4894703;29;8894;-69
2022/01/25 00:33:42;;;;;;;;;14.50;12.75;;;;;-5.73;81.49;102067.78;4897897;29;8898;-70
2022/01/25 00:36:38;;;;;;;;;13.50;13.50;;;;;-5.67;81.41;102058.94;4896360;29;9063;-70
2022/01/25 00:39:06;;;;;;;;;10.50;10.50;;;;;-5.58;81.22;102063.19;4896445;29;8909;-70
2022/01/25 00:41:35;;;;;;;;;14.00;14.00;;;;;-5.70;81.21;102067.41;4891403;29;9638;-69
2022/01/25 00:44:03;;;;;;;;;10.00;10.00;;;;;-5.78;80.97;102067.50;4879278;29;9608;-69
2022/01/25 00:46:44;;;;;;;;;11.50;11.50;;;;;-5.62;81.69;102075.38;4878914;29;8894;-70
2022/01/25 00:49:20;;;;;;;;;12.25;10.00;;;;;-5.69;81.12;102071.75;4879338;29;9718;-70
2022/01/25 00:56:50;;;;;;;;;12.50;12.50;;;;;-5.90;81.08;102064.50;4879251;29;8969;-69
2022/01/25 00:59:36;;;;;;;;;7.00;7.00;;;;;-5.75;82.07;102069.81;4893433;29;8905;-70
2022/01/25 01:02:14;;;;;;;;;13.00;13.00;;;;;-5.96;81.63;102065.25;4886545;29;8922;-69
2022/01/25 01:05:10;;;;;;;;;6.50;6.50;;;;;-5.85;81.55;102062.03;4897520;29;8856;-69
2022/01/25 01:07:40;;;;;;;;;13.50;13.50;;;;;-5.74;82.32;102060.72;4897751;29;8908;-70
2022/01/25 01:10:09;;;;;;;;;12.00;12.00;;;;;-5.75;82.52;102062.59;4897816;29;8856;-69
2022/01/25 01:31:17;;;;;;;;;18.25;17.00;;;;;-5.92;81.88;102067.38;4897046;29;8940;-70
2022/01/25 01:40:04;;;;;;;;;13.00;13.00;;;;;-5.72;82.09;102056.81;4861301;29;8902;-71
2022/01/25 01:48:32;;;;;;;;;11.50;11.50;;;;;-5.82;81.72;102058.16;4881991;29;8937;-70
2022/01/25 01:51:33;;;;;;;;;12.25;12.25;;;;;-5.74;82.68;102064.25;4880035;29;8866;-70
2022/01/25 01:54:15;;;;;;;;;23.50;22.25;;;;;-5.80;82.23;102061.50;4863195;29;9624;-70
2022/01/25 01:56:44;;;;;;;;;19.25;19.25;;;;;-5.74;82.34;102058.03;4863314;29;8913;-70
2022/01/25 01:59:15;;;;;;;;;16.75;15.50;;;;;-5.71;83.02;102061.19;4863075;29;8885;-70
2022/01/25 02:01:45;;;;;;;;;13.25;13.25;;;;;-5.93;82.53;102062.19;4873504;29;8931;-70
2022/01/25 02:04:40;;;;;;;;;13.50;12.00;;;;;-5.93;82.64;102048.72;4900240;29;8895;-70
2022/01/25 02:07:08;;;;;;;;;15.00;15.00;;;;;-5.92;82.16;102062.00;4900386;29;8879;-70
2022/01/25 02:09:35;;;;;;;;;15.00;15.00;;;;;-5.91;82.05;102052.03;4889779;29;8886;-70
2022/01/25 02:12:16;;;;;;;;;9.00;9.00;;;;;-5.94;82.53;102055.97;4888429;29;8906;-70
2022/01/25 02:15:13;;;;;;;;;16.00;16.00;;;;;-5.97;82.63;102050.13;4900000;29;8860;-70
2022/01/25 02:23:28;;;;;;;;;10.75;10.75;;;;;-6.16;83.48;102051.53;4883455;29;9680;-70
2022/01/25 02:26:24;;;;;;;;;14.00;14.00;;;;;-6.10;83.30;102053.47;4880822;29;8862;-70
2022/01/25 02:29:19;;;;;;;;;15.25;15.25;;;;;-5.94;83.66;102066.75;4884454;29;8860;-69
2022/01/25 02:31:48;;;;;;;;;13.50;13.50;;;;;-6.15;83.37;102069.34;4899907;29;9697;-70
2022/01/25 02:34:29;;;;;;;;;7.00;7.00;;;;;-6.14;83.57;102073.72;4898064;29;9716;-71
2022/01/25 02:37:24;;;;;;;;;10.75;10.75;;;;;-6.21;83.56;102070.97;4881223;29;8879;-70
2022/01/25 02:40:07;;;;;;;;;21.25;16.50;;;;;-6.03;83.98;102069.72;4893300;29;9786;-70
2022/01/25 02:42:34;;;;;;;;;18.25;15.50;;;;;-6.18;83.72;102067.88;4882177;29;8878;-70
2022/01/25 02:45:35;;;;;;;;;12.00;12.00;;;;;-6.18;84.11;102075.13;4880881;29;8866;-69
2022/01/25 02:48:31;;;;;;;;;16.25;16.25;;;;;-6.10;83.88;102069.66;4897528;29;8887;-70
2022/01/25 02:51:31;;;;;;;;;16.75;16.00;;;;;-6.18;83.75;102075.13;4897482;29;9593;-69
2022/01/25 02:54:00;;;;;;;;;6.50;1.50;;;;;-6.17;83.56;102066.84;4884491;29;8905;-69
2022/01/25 02:56:28;;;;;;;;;10.50;10.00;;;;;-6.23;83.89;102064.91;4895050;29;8961;-69
2022/01/25 02:59:24;;;;;;;;;19.00;19.00;;;;;-6.27;83.83;102074.41;4880504;29;8882;-70
2022/01/25 03:02:06;;;;;;;;;25.50;23.75;;;;;-6.29;84.09;102059.44;4889414;29;8860;-70
2022/01/25 03:05:03;;;;;;;;;13.00;13.00;;;;;-6.23;83.93;102054.13;4861617;29;8881;-71
2022/01/25 03:07:31;;;;;;;;;19.25;17.00;;;;;-6.00;84.28;102063.97;4845843;29;8908;-69
2022/01/25 03:10:36;;;;;;;;;17.50;16.25;;;;;-6.24;84.20;102057.03;4861774;29;8861;-70
2022/01/25 03:13:37;;;;;;;;;19.50;18.50;;;;;-6.09;84.24;102059.69;4875283;29;8935;-70
2022/01/25 03:16:42;;;;;;;;;24.00;20.50;;;;;-6.07;84.32;102063.88;4899027;29;8894;-70
2022/01/25 03:25:20;;;;;;;;;18.75;18.75;;;;;-5.95;84.32;102065.06;4880191;29;8985;-70
2022/01/25 03:27:47;;;;;;;;;18.00;18.00;;;;;-5.89;83.74;102067.00;4880295;29;8878;-70
2022/01/25 03:30:15;;;;;;;;;18.50;18.50;;;;;-5.86;83.68;102071.16;4879995;29;9597;-70
2022/01/25 03:32:43;;;;;;;;;17.50;15.75;;;;;-5.91;83.97;102069.03;4881478;29;8902;-69
2022/01/25 03:35:39;;;;;;;;;18.25;16.50;;;;;-5.98;83.10;102067.28;4879718;29;8910;-70
2022/01/25 03:38:28;;;;;;;;;16.50;16.50;;;;;-6.01;83.22;102068.50;4879960;29;8973;-70
2022/01/25 03:41:13;;;;;;;;;14.50;14.50;;;;;-6.02;83.75;102072.22;4879926;29;8947;-70
2022/01/25 03:43:42;;;;;;;;;15.25;15.25;;;;;-6.09;83.75;102067.78;4887478;29;8864;-69
2022/01/25 03:46:58;;;;;;;;;19.00;18.50;;;;;-5.86;84.08;102071.16;4894614;29;8902;-69
2022/01/25 03:49:52;;;;;;;;;18.75;18.50;;;;;-5.84;83.93;102073.66;4879255;29;8950;-69
2022/01/25 03:52:47;;;;;;;;;29.25;18.00;;;;;-5.94;83.16;102061.34;4861971;29;8894;-70
2022/01/25 03:55:15;;;;;;;;;15.75;15.75;;;;;-5.81;82.55;102073.28;4880089;29;8893;-70
2022/01/25 03:57:42;;;;;;;;;18.00;18.00;;;;;-5.83;82.29;102067.25;4894210;29;8894;-70
2022/01/25 04:00:39;;;;;;;;;14.75;14.75;;;;;-5.91;82.53;102069.03;4880319;29;8870;-70
2022/01/25 04:03:41;;;;;;;;;13.50;13.50;;;;;-5.82;82.39;102063.53;4881166;29;8863;-70
2022/01/25 04:06:20;;;;;;;;;15.75;15.75;;;;;-5.89;82.39;102052.69;4879561;29;8906;-71
2022/01/25 04:08:48;;;;;;;;;12.00;12.00;;;;;-5.98;82.40;102059.22;4898269;29;8840;-70
2022/01/25 04:11:43;;;;;;;;;13.50;13.50;;;;;-6.02;82.94;102060.63;4897146;29;8900;-70
2022/01/25 04:14:39;;;;;;;;;15.50;15.50;;;;;-6.03;83.08;102067.03;4888999;29;8870;-70
2022/01/25 04:17:35;;;;;;;;;21.75;19.50;;;;;-5.99;82.28;102071.00;4896373;29;8859;-70
2022/01/25 04:20:29;;;;;;;;;20.00;20.00;;;;;-6.02;82.58;102071.41;4897108;29;8990;-71
2022/01/25 04:25:43;;;;;;;;;17.25;15.75;;;;;-5.74;83.23;102060.72;4861067;29;8899;-70
2022/01/25 04:28:25;;;;;;;;;22.25;22.25;;;;;-5.81;82.98;102076.00;4872953;29;8975;-70
2022/01/25 04:30:52;;;;;;;;;19.25;18.25;;;;;-5.72;83.06;102082.94;4872525;29;8894;-70
2022/01/25 04:54:21;;;;;;;;;21.25;20.00;;;;;-5.82;83.47;102091.31;4860457;29;8980;-70
2022/01/25 04:57:28;;;;;;;;;21.25;18.25;;;;;-5.71;81.88;102090.00;4874440;29;8859;-70
2022/01/25 05:02:54;;;;;;;;;21.75;21.00;;;;;-5.91;82.11;102087.91;4864093;29;9730;-70
2022/01/25 05:05:40;;;;;;;;;23.75;22.25;;;;;-5.89;82.46;102088.53;4879188;29;8870;-70
2022/01/25 05:08:20;;;;;;;;;17.00;17.00;;;;;-5.93;82.20;102092.66;4895216;29;8945;-70
2022/01/25 05:11:00;;;;;;;;;19.50;18.75;;;;;-5.94;82.27;102092.84;4897559;29;8860;-70
2022/01/25 05:13:51;;;;;;;;;10.25;8.50;;;;;-5.90;82.38;102103.03;4882225;29;8978;-70
2022/01/25 05:16:33;;;;;;;;;18.75;18.00;;;;;-5.83;82.74;102092.31;4887630;29;8856;-70
2022/01/25 05:24:40;;;;;;;;;15.50;15.50;;;;;-5.78;82.55;102097.16;4883553;29;8872;-70
2022/01/25 05:27:29;;;;;;;;;14.75;14.75;;;;;-5.62;81.87;102103.16;4906696;29;8856;-70
2022/01/25 05:29:57;;;;;;;;;21.50;21.00;;;;;-5.75;81.55;102102.16;4888192;29;8866;-69
2022/01/25 05:32:52;;;;;;;;;18.25;18.00;;;;;-5.70;81.75;102100.56;4882082;29;8877;-70
2022/01/25 05:35:20;;;;;;;;;19.25;17.75;;;;;-5.72;81.76;102099.94;4882338;29;8970;-71
2022/01/25 05:37:49;;;;;;;;;21.00;21.00;;;;;-5.65;81.85;102089.25;4896454;29;8869;-70
2022/01/25 05:49:47;;;;;;;;;23.00;23.00;;;;;-5.66;81.33;102104.59;4880472;29;8893;-70
2022/01/25 05:52:15;;;;;;;;;23.50;23.50;;;;;-5.55;81.41;102097.84;4895839;29;8909;-70
2022/01/25 05:54:43;;;;;;;;;25.25;23.75;;;;;-5.44;82.04;102099.22;4881746;29;8859;-70
2022/01/25 05:57:11;;;;;;;;;25.00;25.00;;;;;-5.38;81.44;102095.75;4881701;29;8988;-70
2022/01/25 05:59:38;;;;;;;;;23.50;23.50;;;;;-5.26;81.94;102099.63;4895972;29;8883;-70
2022/01/25 06:02:07;;;;;;;;;20.50;19.00;;;;;-5.29;81.67;102096.47;4881739;29;8989;-69
2022/01/25 06:04:36;;;;;;;;;21.75;20.00;;;;;-5.33;81.30;102096.03;4881714;29;8929;-70
2022/01/25 06:07:04;;;;;;;;;25.25;22.50;;;;;-5.45;81.71;102095.66;4881812;29;8901;-70
2022/01/25 06:09:31;;;;;;;;;26.50;26.50;;;;;-5.25;81.79;102097.75;4881455;29;8889;-69
2022/01/25 06:12:00;;;;;;;;;24.25;24.25;;;;;-5.31;81.35;102100.19;4895998;29;8874;-69
2022/01/25 06:14:27;;;;;;;;;112.50;91.50;;;;;-5.39;81.45;102094.91;4896610;29;8872;-69
2022/01/25 06:16:55;;;;;;;;;161.50;136.50;;;;;-5.30;81.21;102106.41;4896954;29;8940;-69
2022/01/25 06:19:51;;;;;;;;;39.75;36.75;;;;;-5.54;81.45;102113.00;4884055;29;8912;-69
2022/01/25 06:22:19;;;;;;;;;92.25;71.75;;;;;-5.36;80.88;102104.50;4879991;29;8918;-69
2022/01/25 06:24:46;;;;;;;;;12.75;12.75;;;;;-5.55;80.39;102097.84;4898892;29;8950;-69
2022/01/25 06:27:14;;;;;;;;;25.25;25.25;;;;;-5.34;80.71;102094.34;4899020;29;9677;-69
2022/01/25 06:29:41;;;;;;;;;53.00;47.75;;;;;-5.43;80.59;102090.94;4888353;29;8871;-69
2022/01/25 06:32:09;;;;;;;;;65.75;55.00;;;;;-5.30;80.85;102087.53;4881138;29;8862;-69
2022/01/25 06:34:37;;;;;;;;;40.00;35.00;;;;;-5.19;80.74;102094.31;4895662;29;8887;-69
2022/01/25 06:37:05;;;;;;;;;35.00;33.75;;;;;-5.44;80.57;102099.22;4898441;29;8872;-69
2022/01/25 06:39:33;;;;;;;;;69.50;55.50;;;;;-5.34;80.41;102095.19;4898273;29;8895;-69
2022/01/25 06:42:01;;;;;;;;;60.50;48.50;;;;;-5.33;80.50;102094.16;4892689;29;8884;-69
2022/01/25 06:44:32;;;;;;;;;39.50;38.00;;;;;-5.24;80.29;102096.72;4882545;29;9002;-69
2022/01/25 06:47:09;;;;;;;;;36.25;35.75;;;;;-5.32;80.24;102087.72;4888517;29;8870;-68
2022/01/25 06:49:37;;;;;;;;;60.25;51.25;;;;;-5.20;79.88;102088.06;4884007;29;9005;-68
2022/01/25 06:52:10;;;;;;;;;41.50;38.00;;;;;-5.13;80.54;102082.75;4881318;29;8943;-68
2022/01/25 06:54:38;;;;;;;;;30.25;25.50;;;;;-5.05;80.09;102094.25;4881202;29;8889;-70
2022/01/25 06:57:07;;;;;;;;;25.25;25.25;;;;;-5.15;79.94;102091.00;4894720;29;8882;-69
2022/01/25 06:59:36;;;;;;;;;19.00;19.00;;;;;-5.10;80.01;102093.97;4880610;29;8921;-69
2022/01/25 07:02:05;;;;;;;;;16.25;11.75;;;;;-5.31;79.80;102086.69;4894954;29;8994;-70
2022/01/25 07:04:34;;;;;;;;;23.00;23.00;;;;;-5.27;79.67;102089.88;4894595;29;8894;-69
2022/01/25 07:07:02;;;;;;;;;31.50;31.50;;;;;-5.09;79.81;102089.41;4880537;29;8886;-69
2022/01/25 07:09:30;;;;;;;;;29.00;24.75;;;;;-5.02;80.16;102084.91;4880364;29;9689;-69
2022/01/25 07:12:00;;;;;;;;;19.00;18.00;;;;;-4.93;79.83;102081.03;4880262;29;8988;-69
2022/01/25 07:14:27;;;;;;;;;15.25;15.25;;;;;-5.07;79.26;102073.84;4880191;29;8874;-69
2022/01/25 07:16:55;;;;;;;;;22.00;20.00;;;;;-5.07;79.64;102077.38;4880576;29;8926;-69
2022/01/25 07:19:24;;;;;;;;;30.75;27.75;;;;;-4.91;80.02;102083.53;4879177;29;8874;-68
2022/01/25 07:21:52;;;;;;;;;24.25;24.25;;;;;-4.93;79.35;102081.03;4880472;29;8894;-68
2022/01/25 07:24:20;;;;;;;;;20.00;16.50;;;;;-4.83;79.35;102094.19;4880206;29;8882;-68
2022/01/25 07:26:48;;;;;;;;;21.50;21.50;;;;;-4.84;79.74;102090.66;4880447;29;8891;-69
2022/01/25 07:29:16;;;;;;;;;19.00;16.00;;;;;-5.08;79.57;102093.78;4880154;29;8977;-69
2022/01/25 07:31:45;;;;;;;;;19.25;16.50;;;;;-5.17;79.30;102100.31;4880110;29;8898;-68
2022/01/25 07:34:19;;;;;;;;;20.75;20.75;;;;;-5.33;81.16;102104.09;4880088;29;8882;-68
2022/01/25 07:36:57;;;;;;;;;13.00;12.00;;;;;-5.07;80.84;102098.13;4879255;29;9613;-68
2022/01/25 07:39:30;;;;;;;;;27.25;26.50;;;;;-5.05;79.08;102096.09;4880197;29;8859;-68
2022/01/25 07:41:58;;;;;;;;;21.75;20.25;;;;;-5.05;79.82;102110.44;4879737;29;8891;-68
2022/01/25 07:44:36;;;;;;;;;20.75;20.75;;;;;-5.12;79.17;102108.69;4879986;29;8981;-68
2022/01/25 07:47:06;;;;;;;;;24.25;24.25;;;;;-5.07;78.96;102108.94;4879889;29;8874;-68
2022/01/25 07:49:36;;;;;;;;;32.75;28.25;;;;;-4.96;79.15;102103.03;4878831;29;8882;-68
2022/01/25 07:52:07;;;;;;;;;26.75;24.50;;;;;-4.79;78.86;102108.97;4879817;29;8867;-68
2022/01/25 07:54:36;;;;;;;;;20.50;19.50;;;;;-4.94;78.41;102111.75;4879701;29;8950;-68
2022/01/25 07:57:05;;;;;;;;;21.75;17.50;;;;;-4.96;78.37;102107.59;4879543;29;8982;-69
2022/01/25 07:59:34;;;;;;;;;15.25;14.50;;;;;-4.92;77.81;102112.38;4893495;29;8872;-68
2022/01/25 08:02:02;;;;;;;;;22.00;22.00;;;;;-4.78;77.62;102113.34;4879772;29;8997;-69
2022/01/25 08:04:32;;;;;;;;;21.00;21.00;;;;;-4.71;78.06;102119.63;4879959;29;8859;-68
2022/01/25 08:07:14;;;;;;;;;24.00;21.50;;;;;-4.74;79.59;102114.66;4879676;29;8887;-69
2022/01/25 08:09:45;;;;;;;;;23.75;23.75;;;;;-4.57;78.93;102123.28;4879445;29;8881;-68
2022/01/25 08:12:18;;;;;;;;;20.25;19.00;;;;;-4.52;78.40;102137.88;4893026;29;8878;-69
2022/01/25 08:14:50;;;;;;;;;15.50;15.50;;;;;-4.50;77.10;102130.41;4879519;29;8913;-69
2022/01/25 08:17:18;;;;;;;;;19.00;18.50;;;;;-4.64;76.91;102134.03;4878414;29;8906;-69
2022/01/25 08:19:50;;;;;;;;;16.00;16.00;;;;;-4.73;77.37;102137.06;4879441;29;8858;-68
2022/01/25 08:22:19;;;;;;;;;20.25;19.50;;;;;-4.65;77.89;102131.53;4879581;29;8965;-68
2022/01/25 08:24:59;;;;;;;;;27.50;26.00;;;;;-4.49;76.70;102137.47;4878384;29;8874;-68
2022/01/25 08:27:40;;;;;;;;;19.00;19.00;;;;;-4.47;76.52;102134.56;4879570;29;8990;-67
2022/01/25 08:30:16;;;;;;;;;24.50;24.00;;;;;-4.36;76.95;102125.94;4879154;29;8885;-67
2022/01/25 08:32:44;;;;;;;;;20.75;18.75;;;;;-4.39;76.90;102123.63;4879419;29;8996;-68
2022/01/25 08:35:14;;;;;;;;;25.00;24.25;;;;;-4.39;76.19;102120.91;4878110;29;8961;-68
2022/01/25 08:37:47;;;;;;;;;21.75;19.00;;;;;-4.30;76.35;102124.31;4879435;29;8921;-67
2022/01/25 08:40:15;;;;;;;;;24.75;23.25;;;;;-4.38;76.48;102122.59;4893483;29;8906;-67
2022/01/25 08:42:43;;;;;;;;;23.00;21.75;;;;;-4.38;76.66;102119.06;4879319;29;8874;-67
2022/01/25 08:45:14;;;;;;;;;17.33;17.33;;;;;-4.30;76.17;102114.31;4878989;29;8996;-67
2022/01/25 08:47:48;;;;;;;;;23.00;21.50;;;;;-4.23;75.09;102109.81;4878622;29;8897;-68
2022/01/25 08:50:16;;;;;;;;;18.67;18.67;;;;;-4.25;75.87;102108.34;4881753;29;8858;-69
2022/01/25 08:52:47;;;;;;;;;23.00;21.00;;;;;-4.12;75.25;102110.31;4896458;29;9008;-68
2022/01/25 08:55:35;;;;;;;;;19.67;18.67;;;;;-4.13;75.73;102109.47;4881652;29;8886;-67
2022/01/25 08:58:06;;;;;;;;;18.67;18.67;;;;;-4.05;74.57;102103.91;4881640;29;8992;-68
2022/01/25 09:00:35;;;;;;;;;20.00;20.00;;;;;-4.19;74.64;102104.84;4882034;29;8882;-68
2022/01/25 09:03:12;;;;;;;;;17.50;15.50;;;;;-4.08;75.50;102107.00;4881885;29;8882;-68
2022/01/25 09:05:43;;;;;;;;;25.00;22.00;;;;;-4.09;74.16;102116.13;4882733;29;8899;-68
2022/01/25 09:08:18;;;;;;;;;21.67;18.67;;;;;-4.15;74.36;102114.22;4881482;29;8874;-69
2022/01/25 09:10:52;;;;;;;;;17.33;17.33;;;;;-4.25;73.85;102106.47;4896590;29;8895;-70
2022/01/25 09:13:20;;;;;;;;;15.67;15.67;;;;;-4.34;74.14;102107.66;4896909;29;9806;-70
2022/01/25 09:15:49;;;;;;;;;24.33;22.67;;;;;-4.07;73.97;102110.53;4881338;29;8870;-69
2022/01/25 09:18:36;;;;;;;;;25.00;22.67;;;;;-4.16;74.92;102100.91;4894465;29;8866;-69
2022/01/25 09:21:06;;;;;;;;;19.50;17.00;;;;;-3.96;75.20;102097.28;4882761;29;8863;-69
2022/01/25 09:23:34;;;;;;;;;18.67;18.67;;;;;-3.98;75.19;102099.38;4882723;29;8855;-69
2022/01/25 09:26:04;;;;;;;;;19.67;18.33;;;;;-3.77;74.56;102093.00;4882573;29;8977;-69
2022/01/25 09:28:32;;;;;;;;;24.33;23.67;;;;;-3.86;73.72;102096.91;4882132;29;9695;-69
2022/01/25 09:31:01;;;;;;;;;26.00;23.00;;;;;-3.71;72.50;102097.59;4881412;29;9042;-69
2022/01/25 09:33:30;;;;;;;;;19.67;19.67;;;;;-3.67;72.89;102095.34;4882213;29;8878;-69
2022/01/25 09:35:59;;;;;;;;;24.33;24.33;;;;;-3.71;73.30;102092.19;4880848;29;8886;-69
2022/01/25 09:38:27;;;;;;;;;26.67;25.33;;;;;-3.69;73.73;102092.00;4881928;29;8874;-69
2022/01/25 09:40:55;;;;;;;;;19.67;19.67;;;;;-3.78;73.05;102088.63;4882251;29;8895;-70
2022/01/25 09:43:27;;;;;;;;;16.00;16.00;;;;;-3.49;73.36;102092.06;4896829;29;8921;-71
2022/01/25 09:46:23;;;;;;;;;28.67;26.00;;;;;-3.74;72.35;102089.91;4892975;29;8889;-70
2022/01/25 09:48:52;;;;;;;;;19.67;19.67;;;;;-3.47;72.66;102085.41;4894919;29;8906;-70
2022/01/25 09:51:21;;;;;;;;;33.00;31.67;;;;;-3.41;72.85;102090.00;4879591;29;8886;-71
2022/01/25 09:53:49;;;;;;;;;27.67;26.33;;;;;-3.31;73.48;102086.91;4881633;29;8850;-70
2022/01/25 09:56:16;;;;;;;;;25.33;22.67;;;;;-3.37;72.93;102085.88;4891308;29;8899;-71
2022/01/25 09:58:44;;;;;;;;;25.67;24.33;;;;;-3.25;73.58;102090.66;4900005;29;8973;-73
2022/01/25 10:01:14;;;;;;;;;73.50;61.25;;;;;-3.39;72.93;102089.78;4896208;29;8894;-71
2022/01/25 10:04:00;;;;;;;;;45.50;44.00;;;;;-3.26;71.83;102076.31;4891029;29;8872;-71
2022/01/25 10:06:33;;;;;;;;;54.50;47.75;;;;;-3.40;72.68;102072.72;4880859;29;9002;-72
2022/01/25 10:09:31;;;;;;;;;28.67;28.67;;;;;-3.19;71.76;102076.31;4887684;29;8840;-72
2022/01/25 10:12:30;;;;;;;;;23.33;21.67;;;;;-3.29;70.57;102081.31;4878244;29;9664;-71
2022/01/25 10:15:26;;;;;;;;;30.67;30.00;;;;;-3.07;70.89;102082.78;4886285;29;9644;-70
2022/01/25 10:18:11;;;;;;;;;38.67;36.67;;;;;-2.96;72.45;102078.63;4883234;29;8880;-70
2022/01/25 10:20:47;;;;;;;;;23.33;22.67;;;;;-2.88;72.26;102075.72;4888583;29;8876;-70
2022/01/25 10:23:30;;;;;;;;;44.33;37.67;;;;;-3.03;70.63;102075.09;4880438;29;8871;-70
2022/01/25 10:26:04;;;;;;;;;15.33;15.00;;;;;-3.10;71.52;102066.97;4883068;29;9658;-70
2022/01/25 10:28:31;;;;;;;;;24.00;24.00;;;;;-2.94;71.03;102071.13;4883207;29;8862;-71
2022/01/25 10:31:03;;;;;;;;;41.33;39.33;;;;;-3.01;71.27;102060.31;4885698;29;8893;-70
2022/01/25 10:33:39;;;;;;;;;24.00;24.00;;;;;-3.01;71.71;102056.75;4894016;29;8868;-71
2022/01/25 10:36:27;;;;;;;;;40.67;38.67;;;;;-2.82;71.37;102054.06;4894047;29;8877;-70
2022/01/25 10:38:56;;;;;;;;;34.67;30.33;;;;;-3.11;71.08;102052.59;4879674;29;8889;-69
2022/01/25 10:41:27;;;;;;;;;25.00;25.00;;;;;-2.95;70.08;102061.34;4880678;29;8882;-70
2022/01/25 10:44:09;;;;;;;;;27.00;23.33;;;;;-3.02;71.30;102046.97;4880788;29;9751;-70
2022/01/25 10:46:38;;;;;;;;;30.00;27.00;;;;;-2.93;71.29;102049.25;4884334;29;8874;-70
2022/01/25 10:49:43;;;;;;;;;27.00;27.00;;;;;-3.17;70.71;102041.75;4887666;29;8882;-71
2022/01/25 10:52:11;;;;;;;;;29.33;29.33;;;;;-3.16;71.06;102027.19;4879936;29;8870;-69
2022/01/25 10:54:41;;;;;;;;;24.67;24.67;;;;;-3.30;70.79;102025.50;4893946;29;8878;-69
2022/01/25 10:57:20;;;;;;;;;34.00;29.00;;;;;-2.99;71.30;102019.47;4894510;29;8871;-69
2022/01/25 11:00:11;;;;;;;;;25.33;23.67;;;;;-3.11;71.08;102025.53;4879718;29;8874;-72
2022/01/25 11:02:50;;;;;;;;;22.67;22.67;;;;;-3.34;70.43;102024.28;4877677;29;9604;-71
2022/01/25 11:05:36;;;;;;;;;31.00;31.00;;;;;-3.29;72.35;102028.03;4875299;29;9631;-72
2022/01/25 11:08:16;;;;;;;;;35.33;33.33;;;;;-3.12;72.08;102033.88;4880149;29;8886;-72
2022/01/25 11:10:51;;;;;;;;;40.00;36.67;;;;;-3.03;73.26;102032.63;4883476;29;9798;-71
2022/01/25 11:13:49;;;;;;;;;28.67;27.67;;;;;-3.05;72.21;102037.41;4890994;29;8890;-70
2022/01/25 11:16:48;;;;;;;;;24.33;22.33;;;;;-3.12;72.37;102023.88;4880909;29;8858;-72
2022/01/25 11:19:19;;;;;;;;;26.67;23.33;;;;;-3.25;71.25;102026.56;4887205;29;8846;-71
2022/01/25 11:21:47;;;;;;;;;28.00;28.00;;;;;-3.30;71.55;102017.38;4878917;29;8870;-71
2022/01/25 11:24:44;;;;;;;;;27.33;27.33;;;;;-3.42;71.54;102015.31;4874455;29;8866;-71
2022/01/25 11:27:28;;;;;;;;;40.67;33.00;;;;;-3.65;72.52;102014.84;4879562;29;8921;-71
2022/01/25 11:30:19;;;;;;;;;28.00;28.00;;;;;-3.66;73.07;102011.31;4879255;29;8867;-69
2022/01/25 11:32:49;;;;;;;;;28.67;28.67;;;;;-3.76;71.87;102018.97;4880288;29;8890;-69
2022/01/25 11:35:20;;;;;;;;;34.67;34.67;;;;;-3.41;72.66;102024.25;4878265;29;8878;-69
2022/01/25 11:37:50;;;;;;;;;33.67;31.67;;;;;-3.52;71.26;102019.47;4898283;29;8859;-70
2022/01/25 11:40:41;;;;;;;;;33.00;31.67;;;;;-3.40;72.76;102021.34;4880388;29;8879;-71
2022/01/25 11:43:30;;;;;;;;;23.33;22.67;;;;;-3.59;71.88;102021.31;4893532;29;8880;-70
2022/01/25 11:46:07;;;;;;;;;33.00;30.67;;;;;-3.67;72.33;102017.75;4879502;29;9024;-70
2022/01/25 11:48:41;;;;;;;;;14.33;12.00;;;;;-3.74;72.40;102022.31;4861077;29;8959;-72
2022/01/25 11:51:26;;;;;;;;;31.00;27.33;;;;;-3.79;73.17;102016.66;4880041;29;8886;-72
2022/01/25 11:54:21;;;;;;;;;41.75;38.25;;;;;-3.78;73.00;102018.34;4885086;29;8875;-70
2022/01/25 11:57:23;;;;;;;;;27.25;23.50;;;;;-3.67;73.69;102011.53;4882842;29;9590;-70
2022/01/25 11:59:57;;;;;;;;;37.75;34.75;;;;;-3.58;74.43;102013.00;4890633;29;9612;-70
2022/01/25 12:02:53;;;;;;;;;168.25;149.25;;;;;-3.10;77.54;102024.47;4877596;29;8893;-69
2022/01/25 12:05:53;;;;;;;;;39.67;36.67;;;;;-3.19;78.06;102012.22;4890369;29;8867;-70
2022/01/25 12:08:53;;;;;;;;;64.00;51.75;;;;;-2.86;85.57;102006.78;4880633;29;8985;-70
2022/01/25 12:14:56;;;;;;;;;71.75;52.50;;;;;-2.94;73.93;102003.44;4892689;29;9653;-70
2022/01/25 12:17:27;;;;;;;;;31.75;26.50;;;;;-2.60;79.47;102000.50;4861029;29;8976;-68
2022/01/25 12:19:58;;;;;;;;;63.25;51.50;;;;;-2.82;74.93;101999.91;4873292;29;8882;-71
2022/01/25 12:23:20;;;;;;;;;48.75;43.25;;;;;-2.45;76.31;102010.25;4883031;29;8863;-71
2022/01/25 12:26:07;;;;;;;;;37.67;37.67;;;;;-2.19;75.12;102002.03;4884217;29;8856;-70
2022/01/25 12:28:50;;;;;;;;;32.67;30.67;;;;;-2.20;70.90;102003.09;4878964;29;8889;-70
2022/01/25 12:31:43;;;;;;;;;19.00;19.00;;;;;-2.88;68.79;101997.22;4879058;29;8871;-71
2022/01/25 12:34:25;;;;;;;;;35.33;32.33;;;;;-3.21;69.28;102000.75;4881005;29;9011;-71
2022/01/25 12:36:53;;;;;;;;;26.33;26.33;;;;;-3.50;71.21;101995.75;4874667;29;8892;-71
2022/01/25 12:39:49;;;;;;;;;25.33;25.00;;;;;-3.92;73.23;101992.28;4868670;29;8854;-69
2022/01/25 12:42:46;;;;;;;;;40.25;40.00;;;;;-3.91;73.98;101991.28;4876690;29;8878;-70
2022/01/25 12:45:54;;;;;;;;;27.50;26.25;;;;;-3.79;74.04;101997.75;4873970;29;9000;-70
2022/01/25 12:48:42;;;;;;;;;40.00;37.00;;;;;-3.85;74.68;101997.72;4883789;29;9702;-71
2022/01/25 12:51:12;;;;;;;;;29.75;27.75;;;;;-3.88;75.03;101995.44;4871221;29;8882;-70
2022/01/25 12:53:43;;;;;;;;;43.00;38.25;;;;;-3.97;74.93;101997.50;4878944;29;8951;-70
2022/01/25 12:56:16;;;;;;;;;28.50;27.75;;;;;-4.09;73.78;101996.41;4872708;29;8862;-70
2022/01/25 12:59:23;;;;;;;;;42.75;39.25;;;;;-4.10;74.43;101992.88;4878207;29;8885;-70
2022/01/25 13:02:05;;;;;;;;;33.25;30.50;;;;;-4.05;74.64;101979.59;4870157;29;9616;-70
2022/01/25 13:04:34;;;;;;;;;36.25;36.25;;;;;-4.00;75.70;101984.38;4876598;29;8885;-70
2022/01/25 13:07:15;;;;;;;;;37.50;34.75;;;;;-4.17;74.36;101973.09;4877362;29;8883;-70
2022/01/25 13:09:47;;;;;;;;;28.25;26.00;;;;;-4.07;74.27;101983.50;4878589;29;8879;-69
2022/01/25 13:12:24;;;;;;;;;28.75;27.00;;;;;-3.82;74.80;101978.41;4878889;29;8949;-70
2022/01/25 13:15:15;;;;;;;;;31.50;31.50;;;;;-3.87;74.75;101973.59;4875785;29;8859;-70
2022/01/25 13:17:40;;;;;;;;;35.50;35.50;;;;;-3.88;74.28;101969.25;4878299;29;9016;-70
2022/01/25 13:20:08;;;;;;;;;30.25;28.25;;;;;-3.90;73.84;101965.09;4878570;29;8912;-70
2022/01/25 13:22:40;;;;;;;;;34.50;33.25;;;;;-3.80;73.65;101966.34;4877663;29;8989;-69
2022/01/25 13:27:56;;;;;;;;;44.00;42.75;;;;;-3.81;74.13;101958.44;4878692;29;9617;-69
2022/01/25 13:30:41;;;;;;;;;40.00;37.25;;;;;-3.85;74.07;101952.59;4877021;29;9660;-70
2022/01/25 13:33:19;;;;;;;;;31.33;31.33;;;;;-3.73;73.81;101959.09;4878654;29;8945;-70
2022/01/25 13:35:56;;;;;;;;;33.25;32.00;;;;;-3.64;74.57;101955.13;4881681;29;8946;-70
2022/01/25 13:38:41;;;;;;;;;51.00;47.00;;;;;-3.67;74.69;101960.16;4880860;29;8969;-70
2022/01/25 13:41:19;;;;;;;;;57.25;47.00;;;;;-3.66;74.59;101951.00;4890107;29;8884;-71
2022/01/25 13:46:36;;;;;;;;;56.75;49.50;;;;;-3.57;74.68;101957.03;4901025;29;8890;-70
2022/01/25 13:49:20;;;;;;;;;54.25;48.75;;;;;-3.61;74.85;101961.16;4906532;29;8903;-70
2022/01/25 13:52:15;;;;;;;;;52.75;47.50;;;;;-3.71;73.69;101964.28;4879008;29;8881;-69
2022/01/25 13:55:11;;;;;;;;;55.50;48.50;;;;;-3.68;74.23;101962.03;4879672;29;8892;-69
2022/01/25 13:58:19;;;;;;;;;55.75;49.50;;;;;-3.63;73.37;101955.97;4875214;29;8878;-69
2022/01/25 14:01:04;;;;;;;;;45.25;42.75;;;;;-3.65;74.25;101960.75;4884359;29;8884;-69
2022/01/25 14:03:39;;;;;;;;;49.00;45.75;;;;;-3.98;73.92;101955.28;4883665;29;8946;-69
2022/01/25 14:06:34;;;;;;;;;40.00;39.00;;;;;-3.70;74.69;101955.97;4888568;29;8884;-70
2022/01/25 14:09:07;;;;;;;;;33.25;32.00;;;;;-3.70;74.11;101957.84;4898026;29;8950;-69